.
WxDataArchive / Data Records for 2015-02-10
2015-02-09 February 2015 2015-02-11

Data Records for Tuesday, 10 February 2015

Time	Temp	Chill	HIndex	Humid	Dewpt	 Wind 	HiWind	WindDir	Rain 	Barom
-----	----	-----	------	-----	-----	------	------	-------	-----	-----
00:00	17.5	17.5	17.5	77	11.5	0	4	68	0.00	30.226 
00:05	17.5	17.5	17.5	77	11.5	0	2	68	0.00	30.226 
00:10	17.3	17.3	17.3	77	11.3	0	1	68	0.00	30.226 
00:15	17.3	17.3	17.3	77	11.3	0	1	68	0.00	30.224 
00:20	17.2	17.2	17.2	77	11.3	0	2	68	0.00	30.224 
00:25	17.2	17.2	17.2	76	11.0	0	1	68	0.00	30.224 
00:30	17.0	17.0	17.0	76	10.8	0	2	68	0.00	30.228 
00:35	17.0	17.0	17.0	76	10.8	0	1	68	0.00	30.228 
00:40	16.9	16.9	16.9	76	10.7	0	0	---	0.00	30.228 
00:45	16.7	16.7	16.7	76	10.5	0	2	68	0.00	30.230 
00:50	16.5	16.5	16.5	76	10.3	0	1	68	0.00	30.230 
00:55	16.5	16.5	16.5	77	10.6	0	0	---	0.00	30.230 
01:00	16.4	16.4	16.4	77	10.5	0	2	68	0.00	30.227 
01:05	16.4	16.4	16.4	77	10.5	0	2	68	0.00	30.227 
01:10	16.4	16.4	16.4	77	10.5	0	1	68	0.00	30.227 
01:15	16.4	16.4	16.4	76	10.2	0	0	---	0.00	30.224 
01:20	16.2	16.2	16.2	76	10.0	0	1	68	0.00	30.224 
01:25	16.2	16.2	16.2	76	10.0	0	1	68	0.00	30.224 
01:30	16.1	16.1	16.1	76	9.9	0	1	68	0.00	30.220 
01:35	16.1	16.1	16.1	76	9.9	0	1	68	0.00	30.220 
01:40	16.1	16.1	16.1	76	9.9	0	1	68	0.00	30.220 
01:45	15.9	15.9	15.9	76	9.7	0	1	68	0.00	30.226 
01:50	15.9	15.9	15.9	76	9.7	0	0	---	0.00	30.226 
01:55	15.9	15.9	15.9	76	9.7	0	0	---	0.00	30.226 
02:00	15.7	15.7	15.7	76	9.5	0	0	---	0.00	30.234 
02:05	15.6	15.6	15.6	76	9.4	0	0	---	0.00	30.234 
02:10	15.4	15.4	15.4	76	9.2	0	0	---	0.00	30.234 
02:15	15.2	15.2	15.2	77	9.3	0	0	---	0.00	30.236 
02:20	15.1	15.1	15.1	77	9.2	0	0	---	0.00	30.236 
02:25	14.9	14.9	14.9	77	9.0	0	0	---	0.00	30.236 
02:30	14.8	14.8	14.8	77	8.9	0	0	---	0.00	30.235 
02:35	14.6	14.6	14.6	77	8.7	0	0	---	0.00	30.235 
02:40	14.4	14.4	14.4	78	8.8	0	0	---	0.00	30.235 
02:45	14.4	14.4	14.4	78	8.8	0	0	---	0.00	30.243 
02:50	14.6	14.6	14.6	78	9.0	0	1	68	0.00	30.243 
02:55	14.8	14.8	14.8	79	9.5	0	1	68	0.00	30.243 
03:00	14.8	14.8	14.8	79	9.5	0	1	68	0.00	30.243 
03:05	14.9	14.9	14.9	78	9.3	0	0	---	0.00	30.243 
03:10	14.9	14.9	14.9	78	9.3	0	0	---	0.00	30.243 
03:15	14.8	14.8	14.8	78	9.2	0	0	---	0.00	30.242 
03:20	14.8	14.8	14.8	78	9.2	0	0	---	0.00	30.242 
03:25	14.6	14.6	14.6	78	9.0	0	0	---	0.00	30.242 
03:30	14.6	14.6	14.6	78	9.0	0	0	---	0.00	30.243 
03:35	14.6	14.6	14.6	78	9.0	0	0	---	0.00	30.243 
03:40	14.4	14.4	14.4	78	8.8	0	1	68	0.00	30.243 
03:45	14.3	14.3	14.3	79	9.0	0	0	---	0.00	30.244 
03:50	14.3	14.3	14.3	79	9.0	0	0	---	0.00	30.244 
03:55	14.1	14.1	14.1	79	8.8	0	0	---	0.00	30.244 
04:00	14.0	14.0	14.0	79	8.7	0	0	---	0.00	30.238 
04:05	13.8	13.8	13.8	79	8.5	0	0	---	0.00	30.238 
04:10	13.8	13.8	13.8	79	8.5	0	0	---	0.00	30.238 
04:15	13.6	13.6	13.6	79	8.3	0	0	---	0.00	30.239 
04:20	13.5	13.5	13.5	80	8.5	0	0	---	0.00	30.239 
04:25	13.3	13.3	13.3	80	8.3	0	0	---	0.00	30.239 
04:30	13.3	13.3	13.3	80	8.3	0	0	---	0.00	30.243 
04:35	13.1	13.1	13.1	80	8.1	0	0	---	0.00	30.243 
04:40	13.1	13.1	13.1	80	8.1	0	0	---	0.00	30.243 
04:45	12.9	12.9	12.9	80	7.9	0	0	---	0.00	30.240 
04:50	12.8	12.8	12.8	81	8.1	0	0	---	0.00	30.240 
04:55	12.9	12.9	12.9	81	8.2	0	0	---	0.00	30.240 
05:00	13.1	13.1	13.1	81	8.4	0	1	68	0.00	30.251 
05:05	13.3	13.3	13.3	81	8.6	0	0	---	0.00	30.251 
05:10	13.1	13.1	13.1	81	8.4	0	0	---	0.00	30.251 
05:15	13.1	13.1	13.1	81	8.4	0	0	---	0.00	30.252 
05:20	13.1	13.1	13.1	81	8.4	0	0	---	0.00	30.252 
05:25	12.9	12.9	12.9	81	8.2	0	0	---	0.00	30.252 
05:30	12.8	12.8	12.8	81	8.1	0	0	---	0.00	30.252 
05:35	12.6	12.6	12.6	81	7.9	0	0	---	0.00	30.252 
05:40	12.4	12.4	12.4	81	7.7	0	0	---	0.00	30.252 
05:45	12.3	12.3	12.3	82	7.9	0	0	---	0.00	30.253 
05:50	12.3	12.3	12.3	82	7.9	0	0	---	0.00	30.253 
05:55	12.1	12.1	12.1	82	7.7	0	1	68	0.00	30.253 
06:00	12.1	12.1	12.1	82	7.7	0	0	---	0.00	30.245 
06:05	12.1	12.1	12.1	82	7.7	0	1	68	0.00	30.245 
06:10	12.3	12.3	12.3	83	8.1	0	1	68	0.00	30.245 
06:15	12.3	12.3	12.3	83	8.1	0	1	68	0.00	30.240 
06:20	12.3	12.3	12.3	83	8.1	0	0	---	0.00	30.240 
06:25	12.3	12.3	12.3	83	8.1	0	1	68	0.00	30.240 
06:30	12.3	12.3	12.3	83	8.1	0	1	68	0.00	30.247 
06:35	12.4	12.4	12.4	83	8.2	0	1	68	0.00	30.247 
06:40	12.4	12.4	12.4	83	8.2	0	0	---	0.00	30.247 
06:45	12.3	12.3	12.3	83	8.1	0	0	---	0.00	30.266 
06:50	12.3	12.3	12.3	83	8.1	0	0	---	0.00	30.266 
06:55	12.1	12.1	12.1	83	7.9	0	2	68	0.00	30.266 
07:00	12.3	12.3	12.3	83	8.1	2	3	68	0.00	30.237 
07:05	12.4	12.4	12.4	83	8.2	2	5	68	0.00	30.237 
07:10	12.4	12.4	12.4	83	8.2	0	2	90	0.00	30.237 
07:15	12.4	12.4	12.4	83	8.2	0	2	90	0.00	30.252 
07:20	12.4	12.4	12.4	83	8.2	0	0	---	0.00	30.252 
07:25	12.4	12.4	12.4	83	8.2	0	0	---	0.00	30.252 
07:30	12.3	12.3	12.3	83	8.1	0	0	---	0.00	30.280 
07:35	12.3	12.3	12.3	83	8.1	0	1	90	0.00	30.280 
07:40	12.4	12.4	12.4	83	8.2	0	2	90	0.00	30.280 
07:45	12.6	12.6	12.6	84	8.7	0	3	90	0.00	30.280 
07:50	12.9	12.9	12.9	84	9.0	2	5	90	0.00	30.280 
07:55	13.1	13.1	13.1	84	9.2	1	4	90	0.00	30.280 
08:00	13.3	13.3	13.3	84	9.4	0	3	90	0.00	30.288 
08:05	13.5	13.5	13.5	84	9.6	0	2	90	0.00	30.288 
08:10	13.6	13.6	13.6	84	9.7	0	1	90	0.00	30.288 
08:15	13.6	13.6	13.6	84	9.7	0	1	90	0.00	30.298 
08:20	14.0	14.0	14.0	84	10.1	0	0	---	0.00	30.298 
08:25	14.1	14.1	14.1	84	10.2	0	1	90	0.00	30.298 
08:30	14.3	14.3	14.3	84	10.4	0	1	90	0.00	30.305 
08:35	14.4	14.4	14.4	84	10.5	0	1	90	0.00	30.305 
08:40	14.8	14.8	14.8	84	10.9	0	2	90	0.00	30.305 
08:45	14.9	14.9	14.9	84	11.0	0	1	90	0.00	30.310 
08:50	15.1	15.1	15.1	84	11.2	0	3	90	0.00	30.310 
08:55	15.2	15.2	15.2	84	11.3	0	1	90	0.00	30.310 
09:00	15.4	15.4	15.4	84	11.4	0	0	---	0.00	30.316 
09:05	15.6	15.6	15.6	84	11.6	0	1	90	0.00	30.316 
09:10	15.9	15.9	15.9	84	11.9	0	1	90	0.00	30.316 
09:15	16.1	16.1	16.1	84	12.1	0	1	90	0.00	30.322 
09:20	16.4	16.4	16.4	83	12.2	0	2	90	0.00	30.322 
09:25	16.5	16.5	16.5	82	12.0	1	3	90	0.00	30.322 
09:30	16.7	16.7	16.7	82	12.2	0	3	90	0.00	30.311 
09:35	17.2	17.2	17.2	80	12.1	1	7	90	0.00	30.311 
09:40	17.3	17.3	17.3	80	12.2	1	5	45	0.00	30.311 
09:45	17.8	17.8	17.8	79	12.4	1	5	90	0.00	30.302 
09:50	18.1	18.1	18.1	78	12.4	0	4	90	0.00	30.302 
09:55	18.3	18.3	18.3	76	12.0	1	4	90	0.00	30.302 
10:00	18.4	18.4	18.4	76	12.1	1	4	90	0.00	30.298 
10:05	18.4	18.4	18.4	74	11.5	0	2	90	0.00	30.298 
10:10	18.3	18.3	18.3	74	11.4	0	2	90	0.00	30.298 
10:15	18.4	18.4	18.4	73	11.2	1	4	90	0.00	30.302 
10:20	18.9	18.9	18.9	73	11.7	1	5	112	0.00	30.302 
10:25	18.9	18.9	18.9	71	11.1	3	9	112	0.00	30.302 
10:30	18.8	12.8	18.8	72	11.3	4	9	90	0.00	30.295 
10:35	18.4	18.4	18.4	73	11.2	3	7	90	0.00	30.295 
10:40	18.4	12.4	18.4	72	10.9	4	7	90	0.00	30.295 
10:45	18.4	18.4	18.4	73	11.2	3	7	90	0.00	30.297 
10:50	18.4	18.4	18.4	73	11.2	3	7	112	0.00	30.297 
10:55	18.3	18.3	18.3	73	11.1	2	7	90	0.00	30.297 
11:00	18.4	18.4	18.4	73	11.2	3	6	90	0.00	30.297 
11:05	18.6	18.6	18.6	73	11.4	2	6	90	0.00	30.297 
11:10	18.6	18.6	18.6	73	11.4	2	5	90	0.00	30.297 
11:15	18.9	18.9	18.9	73	11.7	2	5	90	0.00	30.292 
11:20	19.2	19.2	19.2	71	11.4	2	7	112	0.00	30.292 
11:25	19.2	19.2	19.2	73	12.0	1	3	112	0.00	30.292 
11:30	19.5	19.5	19.5	71	11.7	2	6	112	0.00	30.296 
11:35	19.5	19.5	19.5	72	12.0	2	5	112	0.00	30.296 
11:40	19.7	19.7	19.7	70	11.5	2	6	112	0.00	30.296 
11:45	19.7	19.7	19.7	70	11.5	2	6	135	0.00	30.300 
11:50	19.7	19.7	19.7	70	11.5	1	5	90	0.00	30.300 
11:55	19.9	19.9	19.9	71	12.0	1	5	90	0.00	30.300 
12:00	20.0	20.0	20.0	70	11.8	1	5	90	0.00	30.299 
12:05	20.0	20.0	20.0	70	11.8	0	2	90	0.00	30.299 
12:10	19.9	19.9	19.9	69	11.4	1	4	90	0.00	30.299 
12:15	20.0	20.0	20.0	71	12.1	1	3	90	0.00	30.287 
12:20	20.2	20.2	20.2	70	12.0	2	4	90	0.00	30.287 
12:25	20.2	20.2	20.2	70	12.0	2	5	90	0.00	30.287 
12:30	20.0	20.0	20.0	71	12.1	3	6	90	0.00	30.270 
12:35	20.2	20.2	20.2	70	12.0	1	5	68	0.00	30.270 
12:40	20.0	20.0	20.0	71	12.1	3	7	68	0.00	30.270 
12:45	20.0	20.0	20.0	72	12.5	3	10	90	0.00	30.267 
12:50	20.0	20.0	20.0	72	12.5	2	6	90	0.00	30.267 
12:55	20.3	20.3	20.3	71	12.4	2	5	90	0.00	30.267 
13:00	20.6	20.6	20.6	72	13.0	2	5	90	0.00	30.260 
13:05	20.6	20.6	20.6	70	12.4	3	9	90	0.00	30.260 
13:10	20.8	20.8	20.8	72	13.2	2	7	90	0.00	30.260 
13:15	21.0	21.0	21.0	72	13.4	2	6	112	0.00	30.252 
13:20	21.3	21.3	21.3	72	13.7	1	3	90	0.00	30.252 
13:25	21.6	21.6	21.6	71	13.7	1	3	90	0.00	30.252 
13:30	21.6	21.6	21.6	69	13.0	3	6	90	0.00	30.250 
13:35	21.4	21.4	21.4	68	12.5	3	7	90	0.00	30.250 
13:40	21.3	21.3	21.3	69	12.7	1	4	90	0.00	30.250 
13:45	21.4	21.4	21.4	68	12.5	2	6	112	0.00	30.262 
13:50	21.4	21.4	21.4	69	12.8	2	4	112	0.00	30.262 
13:55	21.4	21.4	21.4	68	12.5	2	4	112	0.00	30.262 
14:00	21.4	21.4	21.4	68	12.5	0	2	112	0.00	30.267 
14:05	21.6	21.6	21.6	68	12.7	0	1	112	0.00	30.267 
14:10	21.8	21.8	21.8	68	12.9	1	3	112	0.00	30.267 
14:15	21.9	21.9	21.9	69	13.3	0	3	112	0.00	30.258 
14:20	22.1	22.1	22.1	68	13.2	2	6	112	0.00	30.258 
14:25	22.1	22.1	22.1	68	13.2	1	4	112	0.00	30.258 
14:30	22.2	22.2	22.2	69	13.6	1	5	112	0.00	30.249 
14:35	22.4	22.4	22.4	68	13.5	2	7	90	0.00	30.249 
14:40	22.4	22.4	22.4	67	13.1	2	7	90	0.00	30.249 
14:45	22.4	22.4	22.4	68	13.5	1	4	90	0.00	30.241 
14:50	22.2	22.2	22.2	67	12.9	3	5	90	0.00	30.241 
14:55	22.1	22.1	22.1	68	13.2	1	4	90	0.00	30.241 
15:00	22.5	22.5	22.5	68	13.6	1	4	90	0.00	30.241 
15:05	22.7	22.7	22.7	67	13.4	1	5	90	0.00	30.241 
15:10	22.9	22.9	22.9	68	13.9	1	5	90	0.00	30.241 
15:15	23.0	23.0	23.0	67	13.7	1	5	90	0.00	30.238 
15:20	23.2	23.2	23.2	66	13.6	0	3	90	0.00	30.238 
15:25	23.0	23.0	23.0	66	13.4	1	4	90	0.00	30.238 
15:30	23.0	23.0	23.0	66	13.4	0	3	90	0.00	30.241 
15:35	23.2	23.2	23.2	66	13.6	1	6	90	0.00	30.241 
15:40	23.0	23.0	23.0	66	13.4	2	6	90	0.00	30.241 
15:45	23.2	23.2	23.2	67	13.9	1	3	90	0.00	30.234 
15:50	23.0	23.0	23.0	66	13.4	2	5	90	0.00	30.234 
15:55	23.0	23.0	23.0	66	13.4	2	6	90	0.00	30.234 
16:00	23.2	23.2	23.2	67	13.9	2	5	68	0.00	30.224 
16:05	23.3	23.3	23.3	67	14.0	2	7	90	0.00	30.224 
16:10	23.3	23.3	23.3	66	13.6	1	4	90	0.00	30.224 
16:15	23.2	23.2	23.2	67	13.9	3	6	90	0.00	30.224 
16:20	23.0	23.0	23.0	68	14.0	2	6	90	0.00	30.224 
16:25	23.0	23.0	23.0	68	14.0	2	5	90	0.00	30.224 
16:30	23.2	23.2	23.2	69	14.6	1	5	90	0.00	30.216 
16:35	23.0	23.0	23.0	68	14.0	2	5	90	0.00	30.216 
16:40	22.9	22.9	22.9	69	14.3	1	6	90	0.00	30.216 
16:45	22.9	22.9	22.9	69	14.3	2	5	90	0.00	30.222 
16:50	22.7	22.7	22.7	70	14.4	2	5	90	0.00	30.222 
16:55	22.7	22.7	22.7	71	14.7	3	5	90	0.00	30.222 
17:00	22.7	22.7	22.7	71	14.7	2	4	90	0.00	30.227 
17:05	22.5	22.5	22.5	71	14.5	1	4	90	0.00	30.227 
17:10	22.5	22.5	22.5	71	14.5	1	4	90	0.00	30.227 
17:15	22.5	22.5	22.5	71	14.5	1	3	90	0.00	30.241 
17:20	22.4	22.4	22.4	71	14.4	1	3	90	0.00	30.241 
17:25	22.2	22.2	22.2	72	14.6	1	5	90	0.00	30.241 
17:30	22.2	22.2	22.2	72	14.6	0	2	90	0.00	30.241 
17:35	22.2	22.2	22.2	72	14.6	0	3	90	0.00	30.241 
17:40	22.1	22.1	22.1	73	14.8	1	4	90	0.00	30.241 
17:45	21.9	21.9	21.9	73	14.6	0	2	90	0.00	30.235 
17:50	21.9	21.9	21.9	73	14.6	1	3	90	0.00	30.235 
17:55	21.8	21.8	21.8	73	14.5	0	2	90	0.00	30.235 
18:00	21.4	21.4	21.4	74	14.4	2	4	90	0.00	30.228 
18:05	21.3	21.3	21.3	74	14.3	2	4	90	0.00	30.228 
18:10	21.1	21.1	21.1	75	14.4	2	4	90	0.00	30.228 
18:15	21.1	21.1	21.1	75	14.4	1	4	90	0.00	30.224 
18:20	21.0	21.0	21.0	76	14.6	1	3	90	0.00	30.224 
18:25	20.8	20.8	20.8	76	14.5	1	3	90	0.00	30.224 
18:30	20.6	20.6	20.6	76	14.3	1	4	90	0.00	30.215 
18:35	20.5	20.5	20.5	77	14.5	2	5	68	0.00	30.215 
18:40	20.5	20.5	20.5	77	14.5	1	4	68	0.00	30.215 
18:45	20.3	20.3	20.3	77	14.3	1	3	68	0.00	30.213 
18:50	20.2	20.2	20.2	77	14.2	1	4	68	0.00	30.213 
18:55	20.2	20.2	20.2	78	14.5	0	2	68	0.00	30.213 
19:00	20.0	20.0	20.0	78	14.3	0	0	---	0.00	30.217 
19:05	19.7	19.7	19.7	78	14.0	0	0	---	0.00	30.217 
19:10	19.5	19.5	19.5	78	13.8	0	1	68	0.00	30.217 
19:15	19.4	19.4	19.4	79	14.0	0	2	68	0.00	30.211 
19:20	19.4	19.4	19.4	79	14.0	0	3	68	0.00	30.211 
19:25	19.2	19.2	19.2	79	13.8	0	1	68	0.00	30.211 
19:30	19.1	19.1	19.1	79	13.7	0	0	---	0.00	30.221 
19:35	18.9	18.9	18.9	79	13.5	0	1	68	0.00	30.221 
19:40	18.8	18.8	18.8	80	13.7	0	2	68	0.00	30.221 
19:45	18.8	18.8	18.8	80	13.7	1	3	68	0.00	30.211 
19:50	18.8	18.8	18.8	79	13.4	1	3	68	0.00	30.211 
19:55	18.8	18.8	18.8	79	13.4	1	4	68	0.00	30.211 
20:00	18.8	18.8	18.8	79	13.4	1	3	68	0.00	30.211 
20:05	18.6	18.6	18.6	79	13.2	1	3	68	0.00	30.211 
20:10	18.6	18.6	18.6	79	13.2	0	2	68	0.00	30.211 
20:15	18.4	18.4	18.4	79	13.0	0	2	68	0.00	30.217 
20:20	18.3	18.3	18.3	79	12.9	0	0	---	0.00	30.217 
20:25	18.1	18.1	18.1	79	12.7	0	0	---	0.00	30.217 
20:30	18.0	18.0	18.0	79	12.6	0	0	---	0.00	30.225 
20:35	17.8	17.8	17.8	79	12.4	0	1	68	0.00	30.225 
20:40	17.7	17.7	17.7	80	12.6	0	1	68	0.00	30.225 
20:45	17.5	17.5	17.5	80	12.4	0	0	---	0.00	30.224 
20:50	17.3	17.3	17.3	80	12.2	0	0	---	0.00	30.224 
20:55	17.2	17.2	17.2	80	12.1	0	0	---	0.00	30.224 
21:00	17.0	17.0	17.0	81	12.2	0	0	---	0.00	30.218 
21:05	17.0	17.0	17.0	81	12.2	0	0	---	0.00	30.218 
21:10	16.9	16.9	16.9	81	12.1	0	0	---	0.00	30.218 
21:15	16.7	16.7	16.7	81	11.9	0	0	---	0.00	30.210 
21:20	16.5	16.5	16.5	81	11.7	0	0	---	0.00	30.210 
21:25	16.4	16.4	16.4	81	11.6	0	0	---	0.00	30.210 
21:30	16.2	16.2	16.2	81	11.4	0	0	---	0.00	30.208 
21:35	16.1	16.1	16.1	81	11.3	0	0	---	0.00	30.208 
21:40	15.9	15.9	15.9	81	11.1	0	0	---	0.00	30.208 
21:45	15.7	15.7	15.7	81	10.9	0	0	---	0.00	30.214 
21:50	15.6	15.6	15.6	81	10.8	0	0	---	0.00	30.214 
21:55	15.6	15.6	15.6	82	11.1	0	0	---	0.00	30.214 
22:00	15.4	15.4	15.4	82	10.9	0	0	---	0.00	30.211 
22:05	15.2	15.2	15.2	83	11.0	0	0	---	0.00	30.211 
22:10	15.2	15.2	15.2	83	11.0	0	0	---	0.00	30.211 
22:15	15.1	15.1	15.1	83	10.9	0	0	---	0.00	30.201 
22:20	14.9	14.9	14.9	83	10.7	0	0	---	0.00	30.201 
22:25	15.1	15.1	15.1	84	11.2	0	0	---	0.00	30.201 
22:30	15.1	15.1	15.1	84	11.2	0	0	---	0.00	30.196 
22:35	15.1	15.1	15.1	84	11.2	0	0	---	0.00	30.196 
22:40	15.1	15.1	15.1	84	11.2	0	0	---	0.00	30.196 
22:45	15.1	15.1	15.1	84	11.2	0	0	---	0.00	30.197 
22:50	15.1	15.1	15.1	84	11.2	0	0	---	0.00	30.197 
22:55	14.9	14.9	14.9	84	11.0	0	0	---	0.00	30.197 
23:00	14.9	14.9	14.9	84	11.0	0	2	68	0.00	30.186 
23:05	15.1	15.1	15.1	84	11.2	1	2	68	0.00	30.186 
23:10	15.2	15.2	15.2	85	11.5	1	4	68	0.00	30.186 
23:15	15.6	15.6	15.6	85	11.9	0	2	68	0.00	30.174 
23:20	15.7	15.7	15.7	85	12.0	0	1	68	0.00	30.174 
23:25	16.1	16.1	16.1	85	12.4	0	0	---	0.00	30.174 
23:30	16.2	16.2	16.2	85	12.5	0	1	68	0.00	30.192 
23:35	16.4	16.4	16.4	85	12.7	0	0	---	0.00	30.192 
23:40	16.5	16.5	16.5	85	12.8	0	1	68	0.00	30.192 
23:45	16.5	16.5	16.5	84	12.5	0	1	68	0.00	30.176 
23:50	16.7	16.7	16.7	84	12.7	0	0	---	0.00	30.176 
23:55	16.7	16.7	16.7	84	12.7	0	1	68	0.00	30.176 

CoCoRaHS
IN-AL-39
A2 Web Hosting
Creative Commons License
GoDaddy
search engine by freefind advanced

loaded 2018-11-20 02:27:06 • last modified 2010-11-18 10:43:29
Privacy PolicyDisclaimer
• wx.awcolley.com is powered by PmWiki v.2002016 •
• all content (unless otherwise noted) © 2018 A W Colley